Flight Briefing for CPX956

Departure Arrival
Travis Air Force Base (KSUU)
Click to view FAA NOTAMS
Sacramento International Airport (KSMF)
Click to view FAA NOTAMS
Departure Time Arrival Time
N/A N/A
Aircraft Distance
B757-200SF 30nm
Departure METAR Arrival METAR
KSUU 200758Z AUTO 23007KT 10SM -RA OVC055 12/09 A2990 RMK AO2 RAE12RAB28 SLP132 P0004 T01170094 402350077 $ KSMF 200753Z 19012G16KT 8SM -RA BKN050 OVC070 13/09 A2990 RMK AO2 RAB04 SLP123 P0006 T01280094 402170083
Suggested Route





View recent IFR Routes data
Notes
EMPTY | NON-REVENUE REPOSITIONING LEG | VFR DEPARTURE RCMD IF WX PERMITS

Charts and Procedures

Charts for KSUU
No chart available
Charts for KSMF
No chart available

Windy.com Weather Map